Allakaket, Alaska
Current Conditions -  °F | °C
As of 6:06 PM on Friday 24 Oct 2014 (Local Time) from PABT Reporting Station
Overcast Overcast  
Wind Chill: 19°   Ceiling: 2100
Heat Index: 19°   Visibility: 10mi
Dew Point: 14°   Wind: 0mph
Humidity: 81%   Direction: NA
Pressure: 29.88"   Gusts: NA
Location:  66.57°N, 152.65°W
Report Text: PABT 250206Z 00000KT 10SM FEW012 BKN021 OVC045 M07/M10 A2988 RMK AO2 T10721100
Loading
Personal Weather Stations






























Interactive Weather Map
Tropical Storm Tracking
New forecast layout! Learn more

10-Day Weather Forecast

Advertisements
Track Severe Weather on mobile